Bookmark and Share
Track history (hours):
 

Finest

More information available from US FCC via Universal Licensing System and Coast Guard Vessel Documentation Center.

Last reported at 2014-Mar-05 15:25 UTC. Time now 2014-Apr-17 01:02 UTC.
Position N 40°28' W 073°57'.
Warning: this ship's position is 42 days out of date.

Length 38 m.

Type: High speed craft. MMSI: 366990590.

NotesDate/timePositionNaut miles runAvg speedWind from/ knotsBaromVisibWave heightAir tempDewpointWater temp
2014-Mar-05 15:25N 40°28' W 073°57'1916.7
2014-Mar-05 14:18N 40°46' W 074°01'6 7.5
2014-Mar-05 13:34N 40°41' W 074°01'5 5.3
2014-Mar-05 12:34N 40°36' W 074°03'3 0.2
2014-Mar-04 23:34N 40°38' W 074°03'7 7.0
2014-Mar-04 22:32N 40°31' W 074°04'1111.1
2014-Mar-04 21:33N 40°41' W 074°01'5 2.3
2014-Mar-04 19:24N 40°46' W 074°01'0 0.0
2014-Mar-04 14:25N 40°46' W 074°01'6 6.8
2014-Mar-04 13:34N 40°41' W 074°02'5 5.3
2014-Mar-04 12:34N 40°35' W 074°03'3 0.2
2014-Mar-03 23:32N 40°38' W 074°02'3 1.8
2014-Mar-03 21:34N 40°41' W 074°01'5 1.6
2014-Mar-03 18:27N 40°46' W 074°01'0 0.0
2014-Mar-03 17:20N 40°46' W 074°01'0 0.0
2014-Mar-03 15:19N 40°46' W 074°01'1 0.6
2014-Mar-03 14:13N 40°46' W 074°00'913.7
2014-Mar-03 13:34N 40°37' W 074°03'3 3.0
2014-Mar-03 12:34N 40°40' W 074°02'  
2014-Mar-01 04:12N 40°33' W 074°02'13 2.5
2014-Feb-28 23:03N 40°46' W 074°01'0 0.0
2014-Feb-28 22:23N 40°46' W 074°01'0 0.0
2014-Feb-28 14:29N 40°46' W 074°01'6 6.6
2014-Feb-28 13:34N 40°40' W 074°02'5 4.7
2014-Feb-28 12:34N 40°36' W 074°03'2 0.2
2014-Feb-27 23:33N 40°38' W 074°03'4 1.8
2014-Feb-27 21:34N 40°41' W 074°01'5 1.5
2014-Feb-27 18:16N 40°46' W 074°01'1 0.2
2014-Feb-27 14:11N 40°46' W 074°00'5 8.4
2014-Feb-27 13:34N 40°41' W 074°02'6 5.6
2014-Feb-27 12:33N 40°35' W 074°04'3 0.2
2014-Feb-26 23:33N 40°38' W 074°03'4 1.9
2014-Feb-26 21:34N 40°41' W 074°01'5 1.6
2014-Feb-26 18:19N 40°46' W 074°01'1 0.3
2014-Feb-26 15:31N 40°46' W 074°00'11 8.4
2014-Feb-26 14:12N 40°35' W 074°04'5 8.0
2014-Feb-26 13:34N 40°40' W 074°03'2 1.7
2014-Feb-26 12:13N 40°42' W 074°01'4 0.3
2014-Feb-25 23:33N 40°38' W 074°03'10 9.3
2014-Feb-25 22:26N 40°28' W 074°04'1416.4
2014-Feb-25 21:34N 40°42' W 074°00'3 0.5
2014-Feb-25 14:10N 40°45' W 074°01'5 7.9
2014-Feb-25 13:34N 40°40' W 074°01'5 5.0
2014-Feb-25 12:34N 40°36' W 074°03'1 0.0
2014-Feb-24 23:31N 40°36' W 074°03'4 4.4
2014-Feb-24 22:31N 40°32' W 074°04'1010.6
2014-Feb-24 21:33N 40°42' W 074°00'2 0.2
2014-Feb-24 13:34N 40°40' W 074°02'4 3.5
2014-Feb-24 12:33N 40°37' W 074°03'  

Dump ship's entire track history

sailing weather and tide predictions

Finest — WCW8374 — position and weather